<?xml version="1.0" encoding="UTF-8" standalone="no" ?>
<gpx xmlns="http://www.topografix.com/GPX/1/1" xmlns:xsi="http://www.w3.org/2001/XMLSchema-instance" xsi:schemaLocation="http://www.topografix.com/GPX/1/1 http://www.topografix.com/GPX/1/1/gpx.xsd" version="1.1" creator="VisuGPX - https://www.visugpx.com">
  <metadata>
    <name>VTT hospice de France</name>
  </metadata>
  <trk>
    <name><![CDATA[Luchon Phil V1]]></name>
    <extensions>
      <line xmlns="http://www.topografix.com/GPX/gpx_style/0/2">
        <color>0000FF</color>
        <width>4</width>
      </line>
    </extensions>
    <trkseg>
      <trkpt lat="42.72091" lon="0.65499">
        <ele>1384.8</ele>
        <time>2012-12-24T09:56:30Z</time>
      </trkpt>
      <trkpt lat="42.72095" lon="0.65481">
        <ele>1385.4</ele>
      </trkpt>
      <trkpt lat="42.72104" lon="0.65475">
        <ele>1385.8</ele>
      </trkpt>
      <trkpt lat="42.72112" lon="0.65455">
        <ele>1384.3</ele>
      </trkpt>
      <trkpt lat="42.7212" lon="0.65447">
        <ele>1384.3</ele>
      </trkpt>
      <trkpt lat="42.72129" lon="0.65446">
        <ele>1385.1</ele>
      </trkpt>
      <trkpt lat="42.72134" lon="0.65451">
        <ele>1386.2</ele>
      </trkpt>
      <trkpt lat="42.72139" lon="0.65457">
        <ele>1387.4</ele>
      </trkpt>
      <trkpt lat="42.72147" lon="0.65464">
        <ele>1389.3</ele>
      </trkpt>
      <trkpt lat="42.72149" lon="0.65468">
        <ele>1390</ele>
      </trkpt>
      <trkpt lat="42.72155" lon="0.65469">
        <ele>1391.1</ele>
      </trkpt>
      <trkpt lat="42.72162" lon="0.65457">
        <ele>1391.1</ele>
      </trkpt>
      <trkpt lat="42.72168" lon="0.65439">
        <ele>1390.3</ele>
      </trkpt>
      <trkpt lat="42.72171" lon="0.65421">
        <ele>1387.9</ele>
      </trkpt>
      <trkpt lat="42.72176" lon="0.65407">
        <ele>1384.6</ele>
      </trkpt>
      <trkpt lat="42.72179" lon="0.65385">
        <ele>1379.5</ele>
        <time>2012-12-24T09:57:06Z</time>
      </trkpt>
      <trkpt lat="42.72188" lon="0.6537">
        <ele>1375.7</ele>
      </trkpt>
      <trkpt lat="42.72196" lon="0.65353">
        <ele>1372.4</ele>
      </trkpt>
      <trkpt lat="42.72197" lon="0.65344">
        <ele>1370.8</ele>
        <time>2012-12-24T09:57:32Z</time>
      </trkpt>
      <trkpt lat="42.72202" lon="0.65336">
        <ele>1369.1</ele>
      </trkpt>
      <trkpt lat="42.72203" lon="0.65329">
        <ele>1367.9</ele>
      </trkpt>
      <trkpt lat="42.72264" lon="0.65309">
        <ele>1359.7</ele>
      </trkpt>
      <trkpt lat="42.7227" lon="0.65304">
        <ele>1358.3</ele>
      </trkpt>
      <trkpt lat="42.72286" lon="0.653">
        <ele>1357.2</ele>
        <time>2012-12-24T09:58:14Z</time>
      </trkpt>
      <trkpt lat="42.72302" lon="0.65286">
        <ele>1354.9</ele>
      </trkpt>
      <trkpt lat="42.72315" lon="0.65258">
        <ele>1352</ele>
      </trkpt>
      <trkpt lat="42.72325" lon="0.65234">
        <ele>1349.3</ele>
      </trkpt>
      <trkpt lat="42.72348" lon="0.65201">
        <ele>1345.8</ele>
        <time>2012-12-24T09:58:44Z</time>
      </trkpt>
      <trkpt lat="42.7236" lon="0.6513">
        <ele>1338.2</ele>
      </trkpt>
      <trkpt lat="42.7237" lon="0.65067">
        <ele>1331.1</ele>
        <time>2012-12-24T09:59:27Z</time>
      </trkpt>
      <trkpt lat="42.72389" lon="0.65041">
        <ele>1328.7</ele>
      </trkpt>
      <trkpt lat="42.72395" lon="0.6503">
        <ele>1327.3</ele>
      </trkpt>
      <trkpt lat="42.72396" lon="0.65018">
        <ele>1326</ele>
      </trkpt>
      <trkpt lat="42.72396" lon="0.64987">
        <ele>1322.1</ele>
        <time>2012-12-24T09:59:52Z</time>
      </trkpt>
      <trkpt lat="42.72401" lon="0.64969">
        <ele>1320.3</ele>
      </trkpt>
      <trkpt lat="42.72409" lon="0.64952">
        <ele>1318.5</ele>
      </trkpt>
      <trkpt lat="42.72415" lon="0.64945">
        <ele>1317.8</ele>
      </trkpt>
      <trkpt lat="42.72424" lon="0.64921">
        <ele>1315.8</ele>
      </trkpt>
      <trkpt lat="42.72437" lon="0.64875">
        <ele>1310.7</ele>
      </trkpt>
      <trkpt lat="42.72449" lon="0.64829">
        <ele>1303.1</ele>
        <time>2012-12-24T10:00:39Z</time>
      </trkpt>
      <trkpt lat="42.72453" lon="0.64825">
        <ele>1301.8</ele>
      </trkpt>
      <trkpt lat="42.72457" lon="0.64822">
        <ele>1301.3</ele>
        <time>2012-12-24T10:00:48Z</time>
      </trkpt>
      <trkpt lat="42.72487" lon="0.64828">
        <ele>1303.5</ele>
        <time>2012-12-24T10:01:01Z</time>
      </trkpt>
      <trkpt lat="42.72492" lon="0.64826">
        <ele>1302.7</ele>
      </trkpt>
      <trkpt lat="42.72497" lon="0.64821">
        <ele>1301.6</ele>
      </trkpt>
      <trkpt lat="42.725" lon="0.64813">
        <ele>1300.7</ele>
      </trkpt>
      <trkpt lat="42.72498" lon="0.64787">
        <ele>1297.3</ele>
        <time>2012-12-24T10:01:14Z</time>
      </trkpt>
      <trkpt lat="42.72494" lon="0.64765">
        <ele>1293.9</ele>
      </trkpt>
      <trkpt lat="42.72494" lon="0.64748">
        <ele>1292.3</ele>
      </trkpt>
      <trkpt lat="42.72498" lon="0.64729">
        <ele>1291.8</ele>
      </trkpt>
      <trkpt lat="42.72502" lon="0.64717">
        <ele>1292.4</ele>
        <time>2012-12-24T10:01:36Z</time>
      </trkpt>
      <trkpt lat="42.72507" lon="0.64715">
        <ele>1294.8</ele>
      </trkpt>
      <trkpt lat="42.72511" lon="0.64706">
        <ele>1295.3</ele>
        <time>2012-12-24T10:01:47Z</time>
      </trkpt>
      <trkpt lat="42.72513" lon="0.64687">
        <ele>1294.1</ele>
      </trkpt>
      <trkpt lat="42.72516" lon="0.64666">
        <ele>1294.4</ele>
      </trkpt>
      <trkpt lat="42.72531" lon="0.64634">
        <ele>1296.8</ele>
      </trkpt>
      <trkpt lat="42.72544" lon="0.64612">
        <ele>1300.5</ele>
      </trkpt>
      <trkpt lat="42.72554" lon="0.64575">
        <ele>1303.1</ele>
        <time>2012-12-24T10:02:08Z</time>
      </trkpt>
      <trkpt lat="42.72563" lon="0.64538">
        <ele>1307.6</ele>
        <time>2012-12-24T10:02:33Z</time>
      </trkpt>
      <trkpt lat="42.72577" lon="0.64513">
        <ele>1310.4</ele>
      </trkpt>
      <trkpt lat="42.72604" lon="0.64505">
        <ele>1317</ele>
      </trkpt>
      <trkpt lat="42.72624" lon="0.64497">
        <ele>1318.6</ele>
        <time>2012-12-24T10:02:54Z</time>
      </trkpt>
      <trkpt lat="42.72649" lon="0.64485">
        <ele>1322.2</ele>
      </trkpt>
      <trkpt lat="42.72723" lon="0.64425">
        <ele>1332.9</ele>
        <time>2012-12-24T10:03:45Z</time>
      </trkpt>
      <trkpt lat="42.72796" lon="0.64371">
        <ele>1342.8</ele>
        <time>2012-12-24T10:04:22Z</time>
      </trkpt>
      <trkpt lat="42.72808" lon="0.64362">
        <ele>1343.7</ele>
      </trkpt>
      <trkpt lat="42.72825" lon="0.64328">
        <ele>1347.7</ele>
      </trkpt>
      <trkpt lat="42.72841" lon="0.64276">
        <ele>1353.5</ele>
        <time>2012-12-24T10:04:44Z</time>
      </trkpt>
      <trkpt lat="42.72843" lon="0.64267">
        <ele>1354.2</ele>
      </trkpt>
      <trkpt lat="42.7285" lon="0.64247">
        <ele>1357</ele>
      </trkpt>
      <trkpt lat="42.72849" lon="0.64219">
        <ele>1357.1</ele>
      </trkpt>
      <trkpt lat="42.72842" lon="0.64198">
        <ele>1358.1</ele>
        <time>2012-12-24T10:05:04Z</time>
      </trkpt>
      <trkpt lat="42.7284" lon="0.64179">
        <ele>1359.9</ele>
      </trkpt>
      <trkpt lat="42.72855" lon="0.64142">
        <ele>1367.8</ele>
        <time>2012-12-24T10:05:34Z</time>
      </trkpt>
      <trkpt lat="42.72889" lon="0.64072">
        <ele>1374.1</ele>
      </trkpt>
      <trkpt lat="42.72905" lon="0.64041">
        <ele>1379.8</ele>
      </trkpt>
      <trkpt lat="42.72919" lon="0.64001">
        <ele>1383.2</ele>
      </trkpt>
      <trkpt lat="42.72934" lon="0.63957">
        <ele>1386.5</ele>
        <time>2012-12-24T10:06:28Z</time>
      </trkpt>
      <trkpt lat="42.72956" lon="0.63929">
        <ele>1390.5</ele>
      </trkpt>
      <trkpt lat="42.7297" lon="0.63915">
        <ele>1394.4</ele>
      </trkpt>
      <trkpt lat="42.72979" lon="0.63894">
        <ele>1397.2</ele>
      </trkpt>
      <trkpt lat="42.72986" lon="0.63866">
        <ele>1396.4</ele>
        <time>2012-12-24T10:07:01Z</time>
      </trkpt>
      <trkpt lat="42.73007" lon="0.63838">
        <ele>1400.1</ele>
      </trkpt>
      <trkpt lat="42.7304" lon="0.63811">
        <ele>1404.5</ele>
      </trkpt>
      <trkpt lat="42.7307" lon="0.63787">
        <ele>1409.4</ele>
        <time>2012-12-24T10:07:40Z</time>
      </trkpt>
      <trkpt lat="42.73109" lon="0.63767">
        <ele>1416.5</ele>
      </trkpt>
      <trkpt lat="42.73136" lon="0.63753">
        <ele>1419.1</ele>
        <time>2012-12-24T10:08:13Z</time>
      </trkpt>
      <trkpt lat="42.73153" lon="0.6375">
        <ele>1421.1</ele>
      </trkpt>
      <trkpt lat="42.73171" lon="0.63752">
        <ele>1424.2</ele>
      </trkpt>
      <trkpt lat="42.73185" lon="0.63748">
        <ele>1425.8</ele>
      </trkpt>
      <trkpt lat="42.732" lon="0.63735">
        <ele>1428.9</ele>
      </trkpt>
      <trkpt lat="42.73209" lon="0.63722">
        <ele>1431.1</ele>
        <time>2012-12-24T10:08:44Z</time>
      </trkpt>
      <trkpt lat="42.7323" lon="0.63686">
        <ele>1433.9</ele>
      </trkpt>
      <trkpt lat="42.73266" lon="0.63648">
        <ele>1439.8</ele>
      </trkpt>
      <trkpt lat="42.73292" lon="0.63621">
        <ele>1443.5</ele>
      </trkpt>
      <trkpt lat="42.73306" lon="0.63608">
        <ele>1445.4</ele>
        <time>2012-12-24T10:09:37Z</time>
      </trkpt>
      <trkpt lat="42.73362" lon="0.63582">
        <ele>1452.5</ele>
        <time>2012-12-24T10:10:01Z</time>
      </trkpt>
      <trkpt lat="42.73392" lon="0.63581">
        <ele>1456.5</ele>
      </trkpt>
      <trkpt lat="42.73409" lon="0.63588">
        <ele>1459.3</ele>
      </trkpt>
      <trkpt lat="42.73417" lon="0.63592">
        <ele>1459.9</ele>
      </trkpt>
      <trkpt lat="42.73426" lon="0.63595">
        <ele>1460.3</ele>
      </trkpt>
      <trkpt lat="42.73436" lon="0.63598">
        <ele>1460.6</ele>
      </trkpt>
      <trkpt lat="42.73474" lon="0.63614">
        <ele>1460.7</ele>
        <time>2012-12-24T10:10:31Z</time>
      </trkpt>
      <trkpt lat="42.73506" lon="0.63626">
        <ele>1461.9</ele>
        <time>2012-12-24T10:10:47Z</time>
      </trkpt>
      <trkpt lat="42.73553" lon="0.63667">
        <ele>1466.6</ele>
        <time>2012-12-24T10:11:23Z</time>
      </trkpt>
      <trkpt lat="42.73612" lon="0.63719">
        <ele>1459.9</ele>
        <time>2012-12-24T10:11:43Z</time>
      </trkpt>
      <trkpt lat="42.73661" lon="0.63764">
        <ele>1450.8</ele>
        <time>2012-12-24T10:12:17Z</time>
      </trkpt>
      <trkpt lat="42.7368" lon="0.63796">
        <ele>1445.7</ele>
      </trkpt>
      <trkpt lat="42.73706" lon="0.63848">
        <ele>1440.5</ele>
        <time>2012-12-24T10:13:39Z</time>
      </trkpt>
      <trkpt lat="42.73747" lon="0.63945">
        <ele>1435.2</ele>
      </trkpt>
      <trkpt lat="42.73774" lon="0.6401">
        <ele>1428.5</ele>
      </trkpt>
      <trkpt lat="42.738" lon="0.64094">
        <ele>1425.4</ele>
      </trkpt>
      <trkpt lat="42.73836" lon="0.64183">
        <ele>1418.4</ele>
      </trkpt>
      <trkpt lat="42.73853" lon="0.64214">
        <ele>1414.7</ele>
        <time>2012-12-24T10:15:10Z</time>
      </trkpt>
      <trkpt lat="42.73878" lon="0.64245">
        <ele>1408.7</ele>
      </trkpt>
      <trkpt lat="42.73926" lon="0.64308">
        <ele>1409.6</ele>
      </trkpt>
      <trkpt lat="42.73947" lon="0.64325">
        <ele>1407.8</ele>
        <time>2012-12-24T10:16:18Z</time>
      </trkpt>
      <trkpt lat="42.74006" lon="0.64377">
        <ele>1402.7</ele>
      </trkpt>
      <trkpt lat="42.74036" lon="0.64396">
        <ele>1399.2</ele>
      </trkpt>
      <trkpt lat="42.74039" lon="0.64396">
        <ele>1398.8</ele>
      </trkpt>
      <trkpt lat="42.74043" lon="0.64395">
        <ele>1398</ele>
      </trkpt>
      <trkpt lat="42.74048" lon="0.64396">
        <ele>1397.6</ele>
      </trkpt>
      <trkpt lat="42.74061" lon="0.64401">
        <ele>1397.2</ele>
      </trkpt>
      <trkpt lat="42.7407" lon="0.64406">
        <ele>1397.3</ele>
      </trkpt>
      <trkpt lat="42.74077" lon="0.64406">
        <ele>1396.5</ele>
      </trkpt>
      <trkpt lat="42.74083" lon="0.64403">
        <ele>1395.5</ele>
      </trkpt>
      <trkpt lat="42.74086" lon="0.64401">
        <ele>1394.8</ele>
      </trkpt>
      <trkpt lat="42.74085" lon="0.64396">
        <ele>1393.9</ele>
        <time>2012-12-24T10:16:41Z</time>
      </trkpt>
      <trkpt lat="42.74085" lon="0.64389">
        <ele>1392.6</ele>
      </trkpt>
      <trkpt lat="42.74081" lon="0.64382">
        <ele>1392.1</ele>
      </trkpt>
      <trkpt lat="42.74071" lon="0.64378">
        <ele>1391.7</ele>
      </trkpt>
      <trkpt lat="42.74061" lon="0.64377">
        <ele>1391.6</ele>
      </trkpt>
      <trkpt lat="42.74056" lon="0.64375">
        <ele>1391</ele>
      </trkpt>
      <trkpt lat="42.74049" lon="0.64371">
        <ele>1391</ele>
      </trkpt>
      <trkpt lat="42.74032" lon="0.64359">
        <ele>1390.7</ele>
      </trkpt>
      <trkpt lat="42.74012" lon="0.64342">
        <ele>1391</ele>
      </trkpt>
      <trkpt lat="42.74002" lon="0.64333">
        <ele>1391.3</ele>
      </trkpt>
      <trkpt lat="42.7399" lon="0.64318">
        <ele>1390.8</ele>
      </trkpt>
      <trkpt lat="42.73985" lon="0.64303">
        <ele>1388.4</ele>
      </trkpt>
      <trkpt lat="42.73985" lon="0.64292">
        <ele>1385.7</ele>
      </trkpt>
      <trkpt lat="42.73995" lon="0.64291">
        <ele>1382.5</ele>
      </trkpt>
      <trkpt lat="42.74007" lon="0.643">
        <ele>1381.8</ele>
      </trkpt>
      <trkpt lat="42.74018" lon="0.64312">
        <ele>1382.4</ele>
      </trkpt>
      <trkpt lat="42.74031" lon="0.64323">
        <ele>1382.3</ele>
      </trkpt>
      <trkpt lat="42.74045" lon="0.64329">
        <ele>1381.7</ele>
      </trkpt>
      <trkpt lat="42.74069" lon="0.64327">
        <ele>1379.7</ele>
      </trkpt>
      <trkpt lat="42.74089" lon="0.64329">
        <ele>1379.2</ele>
      </trkpt>
      <trkpt lat="42.74099" lon="0.64342">
        <ele>1379.9</ele>
      </trkpt>
      <trkpt lat="42.74107" lon="0.64346">
        <ele>1379</ele>
      </trkpt>
      <trkpt lat="42.74111" lon="0.64343">
        <ele>1377.5</ele>
        <time>2012-12-24T10:16:58Z</time>
      </trkpt>
      <trkpt lat="42.74116" lon="0.6433">
        <ele>1377.4</ele>
      </trkpt>
      <trkpt lat="42.7412" lon="0.64304">
        <ele>1374.2</ele>
        <time>2012-12-24T10:17:09Z</time>
      </trkpt>
      <trkpt lat="42.74123" lon="0.64294">
        <ele>1373.7</ele>
        <time>2012-12-24T10:17:18Z</time>
      </trkpt>
      <trkpt lat="42.74127" lon="0.6429">
        <ele>1373.2</ele>
        <time>2012-12-24T10:17:35Z</time>
      </trkpt>
      <trkpt lat="42.74143" lon="0.64293">
        <ele>1374.5</ele>
      </trkpt>
      <trkpt lat="42.74158" lon="0.64296">
        <ele>1374.2</ele>
        <time>2012-12-24T10:17:45Z</time>
      </trkpt>
      <trkpt lat="42.74163" lon="0.64293">
        <ele>1373.7</ele>
        <time>2012-12-24T10:17:58Z</time>
      </trkpt>
      <trkpt lat="42.74163" lon="0.64288">
        <ele>1373.3</ele>
        <time>2012-12-24T10:18:06Z</time>
      </trkpt>
      <trkpt lat="42.74162" lon="0.64283">
        <ele>1372.7</ele>
        <time>2012-12-24T10:18:12Z</time>
      </trkpt>
      <trkpt lat="42.74157" lon="0.64262">
        <ele>1372.7</ele>
        <time>2012-12-24T10:18:22Z</time>
      </trkpt>
      <trkpt lat="42.74149" lon="0.64237">
        <ele>1371.2</ele>
        <time>2012-12-24T10:18:40Z</time>
      </trkpt>
      <trkpt lat="42.74144" lon="0.64217">
        <ele>1370.5</ele>
        <time>2012-12-24T10:18:52Z</time>
      </trkpt>
      <trkpt lat="42.74143" lon="0.64212">
        <ele>1370</ele>
      </trkpt>
      <trkpt lat="42.74142" lon="0.64207">
        <ele>1369.8</ele>
      </trkpt>
      <trkpt lat="42.74142" lon="0.64202">
        <ele>1369.9</ele>
      </trkpt>
      <trkpt lat="42.74142" lon="0.64195">
        <ele>1370</ele>
      </trkpt>
      <trkpt lat="42.74141" lon="0.64186">
        <ele>1368.8</ele>
      </trkpt>
      <trkpt lat="42.74153" lon="0.64146">
        <ele>1367.3</ele>
      </trkpt>
      <trkpt lat="42.74157" lon="0.6413">
        <ele>1366.8</ele>
      </trkpt>
      <trkpt lat="42.74159" lon="0.64113">
        <ele>1365.7</ele>
        <time>2012-12-24T10:19:25Z</time>
      </trkpt>
      <trkpt lat="42.74162" lon="0.641">
        <ele>1364.9</ele>
      </trkpt>
      <trkpt lat="42.74168" lon="0.64072">
        <ele>1363.5</ele>
      </trkpt>
      <trkpt lat="42.74171" lon="0.64053">
        <ele>1362.3</ele>
      </trkpt>
      <trkpt lat="42.74176" lon="0.6403">
        <ele>1361.1</ele>
        <time>2012-12-24T10:19:43Z</time>
      </trkpt>
      <trkpt lat="42.74185" lon="0.64003">
        <ele>1360.2</ele>
      </trkpt>
      <trkpt lat="42.74197" lon="0.63974">
        <ele>1358.2</ele>
      </trkpt>
      <trkpt lat="42.74205" lon="0.63952">
        <ele>1356.9</ele>
      </trkpt>
      <trkpt lat="42.74211" lon="0.63935">
        <ele>1356.3</ele>
        <time>2012-12-24T10:20:21Z</time>
      </trkpt>
      <trkpt lat="42.74215" lon="0.63912">
        <ele>1354.5</ele>
      </trkpt>
      <trkpt lat="42.74217" lon="0.63893">
        <ele>1353.4</ele>
      </trkpt>
      <trkpt lat="42.74218" lon="0.63871">
        <ele>1351.9</ele>
      </trkpt>
      <trkpt lat="42.74221" lon="0.63848">
        <ele>1351.2</ele>
        <time>2012-12-24T10:20:43Z</time>
      </trkpt>
      <trkpt lat="42.74223" lon="0.63834">
        <ele>1350.5</ele>
      </trkpt>
      <trkpt lat="42.74233" lon="0.63809">
        <ele>1350</ele>
      </trkpt>
      <trkpt lat="42.7424" lon="0.63792">
        <ele>1348.4</ele>
      </trkpt>
      <trkpt lat="42.74248" lon="0.63778">
        <ele>1347.6</ele>
      </trkpt>
      <trkpt lat="42.74252" lon="0.63764">
        <ele>1347.6</ele>
        <time>2012-12-24T10:21:14Z</time>
      </trkpt>
      <trkpt lat="42.74255" lon="0.63741">
        <ele>1346.8</ele>
      </trkpt>
      <trkpt lat="42.74257" lon="0.63717">
        <ele>1345.1</ele>
        <time>2012-12-24T10:21:28Z</time>
      </trkpt>
      <trkpt lat="42.74264" lon="0.63685">
        <ele>1343.8</ele>
      </trkpt>
      <trkpt lat="42.74271" lon="0.6365">
        <ele>1341.1</ele>
      </trkpt>
      <trkpt lat="42.74278" lon="0.6362">
        <ele>1339.9</ele>
      </trkpt>
      <trkpt lat="42.74285" lon="0.63589">
        <ele>1338.4</ele>
        <time>2012-12-24T10:22:03Z</time>
      </trkpt>
      <trkpt lat="42.74289" lon="0.63556">
        <ele>1336.6</ele>
      </trkpt>
      <trkpt lat="42.74292" lon="0.63519">
        <ele>1334.7</ele>
      </trkpt>
      <trkpt lat="42.74291" lon="0.63486">
        <ele>1331.5</ele>
        <time>2012-12-24T10:22:35Z</time>
      </trkpt>
      <trkpt lat="42.74288" lon="0.63449">
        <ele>1330.4</ele>
        <time>2012-12-24T10:22:54Z</time>
      </trkpt>
      <trkpt lat="42.74287" lon="0.63414">
        <ele>1329.5</ele>
      </trkpt>
      <trkpt lat="42.74288" lon="0.63394">
        <ele>1328.2</ele>
        <time>2012-12-24T10:23:06Z</time>
      </trkpt>
      <trkpt lat="42.74294" lon="0.6338">
        <ele>1328</ele>
      </trkpt>
      <trkpt lat="42.74299" lon="0.63361">
        <ele>1326.4</ele>
      </trkpt>
      <trkpt lat="42.743" lon="0.63348">
        <ele>1325.9</ele>
      </trkpt>
      <trkpt lat="42.743" lon="0.63328">
        <ele>1324.8</ele>
      </trkpt>
      <trkpt lat="42.74301" lon="0.63295">
        <ele>1322.6</ele>
      </trkpt>
      <trkpt lat="42.74301" lon="0.63267">
        <ele>1320</ele>
      </trkpt>
      <trkpt lat="42.74305" lon="0.63237">
        <ele>1319.4</ele>
      </trkpt>
      <trkpt lat="42.74308" lon="0.63219">
        <ele>1318.8</ele>
        <time>2012-12-24T10:23:53Z</time>
      </trkpt>
      <trkpt lat="42.74304" lon="0.63186">
        <ele>1315.8</ele>
      </trkpt>
      <trkpt lat="42.74295" lon="0.63156">
        <ele>1314.4</ele>
      </trkpt>
      <trkpt lat="42.7429" lon="0.63135">
        <ele>1313.4</ele>
      </trkpt>
      <trkpt lat="42.74282" lon="0.63115">
        <ele>1311.5</ele>
      </trkpt>
      <trkpt lat="42.74275" lon="0.63098">
        <ele>1308.6</ele>
      </trkpt>
      <trkpt lat="42.74261" lon="0.63072">
        <ele>1308.3</ele>
      </trkpt>
      <trkpt lat="42.74249" lon="0.6305">
        <ele>1306.4</ele>
        <time>2012-12-24T10:24:57Z</time>
      </trkpt>
      <trkpt lat="42.74224" lon="0.62991">
        <ele>1299.8</ele>
      </trkpt>
      <trkpt lat="42.7422" lon="0.6298">
        <ele>1298.8</ele>
      </trkpt>
      <trkpt lat="42.74217" lon="0.62973">
        <ele>1297.4</ele>
      </trkpt>
      <trkpt lat="42.74213" lon="0.62965">
        <ele>1296.3</ele>
      </trkpt>
      <trkpt lat="42.7421" lon="0.62956">
        <ele>1295.5</ele>
      </trkpt>
      <trkpt lat="42.74204" lon="0.62945">
        <ele>1293.1</ele>
      </trkpt>
      <trkpt lat="42.742" lon="0.62935">
        <ele>1290.8</ele>
      </trkpt>
      <trkpt lat="42.74186" lon="0.62902">
        <ele>1280.9</ele>
        <time>2012-12-24T10:25:48Z</time>
      </trkpt>
      <trkpt lat="42.74176" lon="0.62856">
        <ele>1274.8</ele>
      </trkpt>
      <trkpt lat="42.7417" lon="0.62826">
        <ele>1271.7</ele>
      </trkpt>
      <trkpt lat="42.74163" lon="0.62794">
        <ele>1267.7</ele>
      </trkpt>
      <trkpt lat="42.74164" lon="0.62759">
        <ele>1267.4</ele>
        <time>2012-12-24T10:26:29Z</time>
      </trkpt>
      <trkpt lat="42.74166" lon="0.6271">
        <ele>1260.5</ele>
      </trkpt>
      <trkpt lat="42.74169" lon="0.62665">
        <ele>1254.1</ele>
        <time>2012-12-24T10:26:59Z</time>
      </trkpt>
      <trkpt lat="42.74171" lon="0.62625">
        <ele>1249.4</ele>
      </trkpt>
      <trkpt lat="42.74173" lon="0.62602">
        <ele>1246.8</ele>
      </trkpt>
      <trkpt lat="42.74173" lon="0.62561">
        <ele>1242.5</ele>
      </trkpt>
      <trkpt lat="42.74175" lon="0.62527">
        <ele>1240.7</ele>
      </trkpt>
      <trkpt lat="42.74176" lon="0.625">
        <ele>1238.2</ele>
      </trkpt>
      <trkpt lat="42.74178" lon="0.62473">
        <ele>1235.1</ele>
        <time>2012-12-24T10:27:52Z</time>
      </trkpt>
      <trkpt lat="42.74182" lon="0.62434">
        <ele>1229</ele>
      </trkpt>
      <trkpt lat="42.74183" lon="0.62423">
        <ele>1226.3</ele>
      </trkpt>
      <trkpt lat="42.74195" lon="0.6238">
        <ele>1222.7</ele>
      </trkpt>
      <trkpt lat="42.74208" lon="0.62334">
        <ele>1217.8</ele>
      </trkpt>
      <trkpt lat="42.74219" lon="0.62292">
        <ele>1214.3</ele>
        <time>2012-12-24T10:28:51Z</time>
      </trkpt>
      <trkpt lat="42.74234" lon="0.62239">
        <ele>1206.6</ele>
      </trkpt>
      <trkpt lat="42.7425" lon="0.62197">
        <ele>1198.6</ele>
      </trkpt>
      <trkpt lat="42.74267" lon="0.62154">
        <ele>1197</ele>
      </trkpt>
      <trkpt lat="42.74284" lon="0.6211">
        <ele>1190.8</ele>
      </trkpt>
      <trkpt lat="42.74303" lon="0.62065">
        <ele>1185</ele>
      </trkpt>
      <trkpt lat="42.74322" lon="0.62018">
        <ele>1181.6</ele>
        <time>2012-12-24T10:30:23Z</time>
      </trkpt>
      <trkpt lat="42.74345" lon="0.61968">
        <ele>1175.9</ele>
      </trkpt>
      <trkpt lat="42.74369" lon="0.61919">
        <ele>1170.3</ele>
        <time>2012-12-24T10:30:58Z</time>
      </trkpt>
      <trkpt lat="42.74379" lon="0.61899">
        <ele>1161.3</ele>
      </trkpt>
      <trkpt lat="42.74386" lon="0.61876">
        <ele>1214.516846</ele>
        <time>2012-12-24T10:31:11Z</time>
      </trkpt>
      <trkpt lat="42.74396" lon="0.61852">
        <ele>1143.1</ele>
        <time>2012-12-24T10:31:18Z</time>
      </trkpt>
      <trkpt lat="42.74399" lon="0.61839">
        <ele>1140.9</ele>
        <time>2012-12-24T10:31:25Z</time>
      </trkpt>
      <trkpt lat="42.74403" lon="0.61787">
        <ele>1132.1</ele>
        <time>2012-12-24T10:31:34Z</time>
      </trkpt>
      <trkpt lat="42.74411" lon="0.61763">
        <ele>1131.6</ele>
        <time>2012-12-24T10:31:48Z</time>
      </trkpt>
      <trkpt lat="42.74418" lon="0.61727">
        <ele>1124.6</ele>
      </trkpt>
      <trkpt lat="42.74423" lon="0.61685">
        <ele>1114.3</ele>
      </trkpt>
      <trkpt lat="42.74423" lon="0.61676">
        <ele>1112.4</ele>
        <time>2012-12-24T10:32:17Z</time>
      </trkpt>
      <trkpt lat="42.74424" lon="0.61655">
        <ele>1110.5</ele>
        <time>2012-12-24T10:32:21Z</time>
      </trkpt>
      <trkpt lat="42.74432" lon="0.61628">
        <ele>1114.3</ele>
        <time>2012-12-24T10:32:29Z</time>
      </trkpt>
      <trkpt lat="42.74436" lon="0.61611">
        <ele>1114.9</ele>
        <time>2012-12-24T10:32:39Z</time>
      </trkpt>
      <trkpt lat="42.74449" lon="0.61591">
        <ele>1114.5</ele>
      </trkpt>
      <trkpt lat="42.74461" lon="0.61574">
        <ele>1110.3</ele>
        <time>2012-12-24T10:32:59Z</time>
      </trkpt>
      <trkpt lat="42.7447" lon="0.61561">
        <ele>1106.7</ele>
      </trkpt>
      <trkpt lat="42.74483" lon="0.6155">
        <ele>1104.3</ele>
        <time>2012-12-24T10:33:12Z</time>
      </trkpt>
      <trkpt lat="42.74498" lon="0.61542">
        <ele>1125.446411</ele>
        <time>2012-12-24T10:33:18Z</time>
      </trkpt>
      <trkpt lat="42.74519" lon="0.61525">
        <ele>1098</ele>
      </trkpt>
      <trkpt lat="42.74531" lon="0.61514">
        <ele>1092.5</ele>
      </trkpt>
      <trkpt lat="42.74563" lon="0.61505">
        <ele>1089.7</ele>
        <time>2012-12-24T10:33:39Z</time>
      </trkpt>
      <trkpt lat="42.74608" lon="0.6149">
        <ele>1084.2</ele>
      </trkpt>
      <trkpt lat="42.74647" lon="0.61486">
        <ele>1076.536011</ele>
        <time>2012-12-24T10:34:21Z</time>
      </trkpt>
      <trkpt lat="42.74678" lon="0.6148">
        <ele>1071.4</ele>
      </trkpt>
      <trkpt lat="42.74707" lon="0.61477">
        <ele>1064.2</ele>
        <time>2012-12-24T10:34:45Z</time>
      </trkpt>
      <trkpt lat="42.74723" lon="0.61474">
        <ele>1057.6</ele>
      </trkpt>
      <trkpt lat="42.74734" lon="0.61474">
        <ele>1054.6</ele>
        <time>2012-12-24T10:35:11Z</time>
      </trkpt>
      <trkpt lat="42.74726" lon="0.61455">
        <ele>1046</ele>
      </trkpt>
      <trkpt lat="42.74712" lon="0.61431">
        <ele>1038.6</ele>
        <time>2012-12-24T10:35:40Z</time>
      </trkpt>
      <trkpt lat="42.74708" lon="0.61425">
        <ele>1036</ele>
      </trkpt>
      <trkpt lat="42.7472" lon="0.61425">
        <ele>1033.3</ele>
      </trkpt>
      <trkpt lat="42.74775" lon="0.6143">
        <ele>1022.1</ele>
        <time>2012-12-24T10:36:05Z</time>
      </trkpt>
      <trkpt lat="42.74818" lon="0.61411">
        <ele>1011.4</ele>
        <time>2012-12-24T10:36:21Z</time>
      </trkpt>
      <trkpt lat="42.74877" lon="0.61387">
        <ele>1003.8</ele>
        <time>2012-12-24T10:36:32Z</time>
      </trkpt>
      <trkpt lat="42.74899" lon="0.61377">
        <ele>997</ele>
      </trkpt>
      <trkpt lat="42.74908" lon="0.61372">
        <ele>993.4</ele>
        <time>2012-12-24T10:37:00Z</time>
      </trkpt>
      <trkpt lat="42.74913" lon="0.61369">
        <ele>990.9</ele>
        <time>2012-12-24T10:37:24Z</time>
      </trkpt>
      <trkpt lat="42.74908" lon="0.61358">
        <ele>985.4</ele>
      </trkpt>
      <trkpt lat="42.74902" lon="0.61344">
        <ele>978.8</ele>
        <time>2012-12-24T10:37:54Z</time>
      </trkpt>
      <trkpt lat="42.74879" lon="0.61334">
        <ele>974.7</ele>
      </trkpt>
      <trkpt lat="42.74855" lon="0.61329">
        <ele>970.8</ele>
      </trkpt>
      <trkpt lat="42.74835" lon="0.61321">
        <ele>962.2</ele>
        <time>2012-12-24T10:38:17Z</time>
      </trkpt>
      <trkpt lat="42.74859" lon="0.61314">
        <ele>964.3</ele>
      </trkpt>
      <trkpt lat="42.74885" lon="0.61302">
        <ele>969.087097</ele>
        <time>2012-12-24T10:38:34Z</time>
      </trkpt>
      <trkpt lat="42.74912" lon="0.61302">
        <ele>954.7</ele>
      </trkpt>
      <trkpt lat="42.74942" lon="0.61301">
        <ele>948.6</ele>
        <time>2012-12-24T10:38:55Z</time>
      </trkpt>
      <trkpt lat="42.74948" lon="0.61302">
        <ele>948.5</ele>
      </trkpt>
      <trkpt lat="42.74985" lon="0.61275">
        <ele>938.7</ele>
        <time>2012-12-24T10:39:11Z</time>
      </trkpt>
      <trkpt lat="42.75018" lon="0.61253">
        <ele>929.2</ele>
        <time>2012-12-24T10:39:35Z</time>
      </trkpt>
      <trkpt lat="42.75068" lon="0.61228">
        <ele>921.5</ele>
      </trkpt>
      <trkpt lat="42.75079" lon="0.6122">
        <ele>918.6</ele>
        <time>2012-12-24T10:40:28Z</time>
      </trkpt>
      <trkpt lat="42.75113" lon="0.61194">
        <ele>905.7</ele>
        <time>2012-12-24T10:40:42Z</time>
      </trkpt>
      <trkpt lat="42.75131" lon="0.6118">
        <ele>900.3</ele>
      </trkpt>
      <trkpt lat="42.75133" lon="0.61169">
        <ele>894.7</ele>
      </trkpt>
      <trkpt lat="42.75097" lon="0.61154">
        <ele>886.3</ele>
      </trkpt>
      <trkpt lat="42.75069" lon="0.61149">
        <ele>883.3</ele>
        <time>2012-12-24T10:41:34Z</time>
      </trkpt>
      <trkpt lat="42.75053" lon="0.61143">
        <ele>879.4</ele>
      </trkpt>
      <trkpt lat="42.75052" lon="0.61123">
        <ele>869.4</ele>
      </trkpt>
      <trkpt lat="42.75079" lon="0.61112">
        <ele>863.5</ele>
      </trkpt>
      <trkpt lat="42.7512" lon="0.61101">
        <ele>858.1</ele>
      </trkpt>
      <trkpt lat="42.75155" lon="0.61091">
        <ele>851.8</ele>
        <time>2012-12-24T10:42:22Z</time>
      </trkpt>
      <trkpt lat="42.75228" lon="0.61072">
        <ele>851.6</ele>
        <time>2012-12-24T10:42:57Z</time>
      </trkpt>
      <trkpt lat="42.75265" lon="0.61045">
        <ele>852.5</ele>
      </trkpt>
      <trkpt lat="42.7528" lon="0.61028">
        <ele>854.2</ele>
      </trkpt>
      <trkpt lat="42.75292" lon="0.61018">
        <ele>852</ele>
        <time>2012-12-24T10:43:21Z</time>
      </trkpt>
      <trkpt lat="42.75317" lon="0.6101">
        <ele>850.6</ele>
        <time>2012-12-24T10:43:44Z</time>
      </trkpt>
      <trkpt lat="42.75311" lon="0.61001">
        <ele>848.3</ele>
      </trkpt>
      <trkpt lat="42.7531" lon="0.60978">
        <ele>843.5</ele>
        <time>2012-12-24T10:43:58Z</time>
      </trkpt>
      <trkpt lat="42.75309" lon="0.60951">
        <ele>839</ele>
      </trkpt>
      <trkpt lat="42.75317" lon="0.60928">
        <ele>835.6</ele>
      </trkpt>
      <trkpt lat="42.75317" lon="0.60922">
        <ele>834.6</ele>
      </trkpt>
      <trkpt lat="42.75332" lon="0.60912">
        <ele>831.6</ele>
        <time>2012-12-24T10:44:25Z</time>
      </trkpt>
      <trkpt lat="42.7535" lon="0.60925">
        <ele>826</ele>
      </trkpt>
      <trkpt lat="42.75378" lon="0.60939">
        <ele>817.7</ele>
      </trkpt>
      <trkpt lat="42.75404" lon="0.6096">
        <ele>814.8</ele>
      </trkpt>
      <trkpt lat="42.75424" lon="0.60978">
        <ele>813.5</ele>
      </trkpt>
      <trkpt lat="42.7545" lon="0.61001">
        <ele>815.8</ele>
      </trkpt>
      <trkpt lat="42.75473" lon="0.61001">
        <ele>812.3</ele>
      </trkpt>
      <trkpt lat="42.75508" lon="0.61004">
        <ele>809.7</ele>
        <time>2012-12-24T10:45:05Z</time>
      </trkpt>
      <trkpt lat="42.75535" lon="0.6101">
        <ele>809.2</ele>
      </trkpt>
      <trkpt lat="42.75561" lon="0.61021">
        <ele>807.3</ele>
      </trkpt>
      <trkpt lat="42.75584" lon="0.61034">
        <ele>806.7</ele>
      </trkpt>
      <trkpt lat="42.75617" lon="0.61025">
        <ele>802.8</ele>
      </trkpt>
      <trkpt lat="42.75651" lon="0.61019">
        <ele>798.6</ele>
      </trkpt>
      <trkpt lat="42.75682" lon="0.61021">
        <ele>799.4</ele>
      </trkpt>
      <trkpt lat="42.75729" lon="0.60991">
        <ele>800</ele>
        <time>2012-12-24T10:45:45Z</time>
      </trkpt>
      <trkpt lat="42.75786" lon="0.60967">
        <ele>804.5</ele>
        <time>2012-12-24T10:46:32Z</time>
      </trkpt>
      <trkpt lat="42.75824" lon="0.60955">
        <ele>803.2</ele>
        <time>2012-12-24T10:47:21Z</time>
      </trkpt>
      <trkpt lat="42.75839" lon="0.6096">
        <ele>805.1</ele>
        <time>2012-12-24T10:47:39Z</time>
      </trkpt>
      <trkpt lat="42.75859" lon="0.60971">
        <ele>803.4</ele>
        <time>2012-12-24T10:48:02Z</time>
      </trkpt>
      <trkpt lat="42.75871" lon="0.60974">
        <ele>803.1</ele>
        <time>2012-12-24T10:48:21Z</time>
      </trkpt>
      <trkpt lat="42.75896" lon="0.60978">
        <ele>803.3</ele>
      </trkpt>
      <trkpt lat="42.75933" lon="0.60992">
        <ele>804.8</ele>
      </trkpt>
      <trkpt lat="42.7597" lon="0.60999">
        <ele>799</ele>
      </trkpt>
      <trkpt lat="42.75985" lon="0.61012">
        <ele>800.9</ele>
      </trkpt>
      <trkpt lat="42.75997" lon="0.61012">
        <ele>797.7</ele>
      </trkpt>
      <trkpt lat="42.76029" lon="0.61013">
        <ele>799.8</ele>
        <time>2012-12-24T10:49:15Z</time>
      </trkpt>
      <trkpt lat="42.76085" lon="0.61015">
        <ele>790.1</ele>
        <time>2012-12-24T10:49:59Z</time>
      </trkpt>
      <trkpt lat="42.76137" lon="0.61013">
        <ele>785.6</ele>
      </trkpt>
      <trkpt lat="42.76178" lon="0.61024">
        <ele>784.8</ele>
      </trkpt>
      <trkpt lat="42.76215" lon="0.61031">
        <ele>782.1</ele>
      </trkpt>
      <trkpt lat="42.76267" lon="0.61029">
        <ele>768.7</ele>
      </trkpt>
      <trkpt lat="42.7631" lon="0.61032">
        <ele>760.7</ele>
      </trkpt>
      <trkpt lat="42.76334" lon="0.61037">
        <ele>766.1</ele>
      </trkpt>
      <trkpt lat="42.76361" lon="0.61042">
        <ele>765</ele>
      </trkpt>
      <trkpt lat="42.7638" lon="0.61045">
        <ele>762.9</ele>
      </trkpt>
      <trkpt lat="42.76402" lon="0.61055">
        <ele>765</ele>
      </trkpt>
      <trkpt lat="42.76417" lon="0.6106">
        <ele>764.7</ele>
      </trkpt>
      <trkpt lat="42.76427" lon="0.61066">
        <ele>765.9</ele>
      </trkpt>
      <trkpt lat="42.76448" lon="0.61061">
        <ele>761.7</ele>
      </trkpt>
      <trkpt lat="42.76462" lon="0.61051">
        <ele>757.6</ele>
      </trkpt>
      <trkpt lat="42.7648" lon="0.61043">
        <ele>753.2</ele>
      </trkpt>
      <trkpt lat="42.76492" lon="0.61051">
        <ele>756.6</ele>
      </trkpt>
      <trkpt lat="42.76508" lon="0.61052">
        <ele>756.5</ele>
      </trkpt>
      <trkpt lat="42.76534" lon="0.61057">
        <ele>757.7</ele>
      </trkpt>
      <trkpt lat="42.76556" lon="0.61057">
        <ele>755.3</ele>
      </trkpt>
      <trkpt lat="42.76579" lon="0.61065">
        <ele>754.9</ele>
      </trkpt>
      <trkpt lat="42.76656" lon="0.6109">
        <ele>746.9</ele>
      </trkpt>
      <trkpt lat="42.76685" lon="0.61026">
        <ele>713</ele>
      </trkpt>
      <trkpt lat="42.76697" lon="0.61015">
        <ele>717.9</ele>
      </trkpt>
      <trkpt lat="42.76693" lon="0.60966">
        <ele>744.2</ele>
      </trkpt>
      <trkpt lat="42.76719" lon="0.60923">
        <ele>753.6</ele>
      </trkpt>
      <trkpt lat="42.76748" lon="0.60893">
        <ele>759.6</ele>
      </trkpt>
      <trkpt lat="42.76751" lon="0.60863">
        <ele>768</ele>
      </trkpt>
      <trkpt lat="42.76794" lon="0.60792">
        <ele>749.6</ele>
      </trkpt>
      <trkpt lat="42.76786" lon="0.60762">
        <ele>746.4</ele>
      </trkpt>
      <trkpt lat="42.76811" lon="0.60745">
        <ele>735.7</ele>
      </trkpt>
      <trkpt lat="42.76805" lon="0.60674">
        <ele>725.3</ele>
      </trkpt>
      <trkpt lat="42.76805" lon="0.60639">
        <ele>724.3</ele>
      </trkpt>
      <trkpt lat="42.76812" lon="0.60606">
        <ele>724.5</ele>
      </trkpt>
      <trkpt lat="42.76832" lon="0.60576">
        <ele>723.3</ele>
      </trkpt>
      <trkpt lat="42.76818" lon="0.60579">
        <ele>726.1</ele>
      </trkpt>
      <trkpt lat="42.76717" lon="0.60701">
        <ele>743.7</ele>
      </trkpt>
      <trkpt lat="42.76628" lon="0.6085">
        <ele>761</ele>
      </trkpt>
      <trkpt lat="42.76597" lon="0.609">
        <ele>765</ele>
      </trkpt>
      <trkpt lat="42.76541" lon="0.60919">
        <ele>770.7</ele>
      </trkpt>
      <trkpt lat="42.76505" lon="0.60931">
        <ele>775</ele>
      </trkpt>
      <trkpt lat="42.76487" lon="0.60926">
        <ele>776.7</ele>
      </trkpt>
      <trkpt lat="42.76304" lon="0.60893">
        <ele>786.7</ele>
      </trkpt>
      <trkpt lat="42.76119" lon="0.60864">
        <ele>783.5</ele>
      </trkpt>
      <trkpt lat="42.76083" lon="0.60851">
        <ele>786.4</ele>
      </trkpt>
      <trkpt lat="42.7602" lon="0.6081">
        <ele>789.7</ele>
      </trkpt>
      <trkpt lat="42.75932" lon="0.60784">
        <ele>797.1</ele>
      </trkpt>
      <trkpt lat="42.75842" lon="0.60795">
        <ele>799.4</ele>
      </trkpt>
      <trkpt lat="42.75758" lon="0.60824">
        <ele>805.9</ele>
      </trkpt>
      <trkpt lat="42.75692" lon="0.60917">
        <ele>807.2</ele>
      </trkpt>
      <trkpt lat="42.75658" lon="0.60934">
        <ele>809.3</ele>
      </trkpt>
      <trkpt lat="42.75614" lon="0.60921">
        <ele>813</ele>
      </trkpt>
      <trkpt lat="42.75474" lon="0.60906">
        <ele>824.6</ele>
      </trkpt>
      <trkpt lat="42.75388" lon="0.60894">
        <ele>822.6</ele>
      </trkpt>
      <trkpt lat="42.75313" lon="0.60855">
        <ele>824.1</ele>
      </trkpt>
      <trkpt lat="42.75231" lon="0.60889">
        <ele>826.7</ele>
      </trkpt>
      <trkpt lat="42.75148" lon="0.60922">
        <ele>828.2</ele>
      </trkpt>
      <trkpt lat="42.75038" lon="0.6094">
        <ele>831.5</ele>
      </trkpt>
      <trkpt lat="42.74929" lon="0.6098">
        <ele>834.4</ele>
      </trkpt>
      <trkpt lat="42.74871" lon="0.61043">
        <ele>841.2</ele>
      </trkpt>
      <trkpt lat="42.74827" lon="0.61069">
        <ele>847.8</ele>
      </trkpt>
      <trkpt lat="42.74764" lon="0.61089">
        <ele>853.8</ele>
      </trkpt>
      <trkpt lat="42.747" lon="0.6112">
        <ele>858.7</ele>
      </trkpt>
      <trkpt lat="42.74646" lon="0.61131">
        <ele>865</ele>
      </trkpt>
      <trkpt lat="42.74606" lon="0.61119">
        <ele>865.2</ele>
      </trkpt>
      <trkpt lat="42.74556" lon="0.61124">
        <ele>874.6</ele>
      </trkpt>
      <trkpt lat="42.74534" lon="0.61138">
        <ele>881.8</ele>
      </trkpt>
      <trkpt lat="42.74478" lon="0.61114">
        <ele>887.7</ele>
      </trkpt>
      <trkpt lat="42.74454" lon="0.61122">
        <ele>887.5</ele>
      </trkpt>
      <trkpt lat="42.74416" lon="0.61164">
        <ele>890.6</ele>
      </trkpt>
      <trkpt lat="42.7437" lon="0.61181">
        <ele>898.6</ele>
      </trkpt>
      <trkpt lat="42.74314" lon="0.61198">
        <ele>896.7</ele>
      </trkpt>
      <trkpt lat="42.74277" lon="0.61293">
        <ele>906</ele>
      </trkpt>
      <trkpt lat="42.74281" lon="0.61313">
        <ele>915.3</ele>
      </trkpt>
      <trkpt lat="42.74241" lon="0.61366">
        <ele>918.2</ele>
      </trkpt>
      <trkpt lat="42.74226" lon="0.61417">
        <ele>924.9</ele>
      </trkpt>
      <trkpt lat="42.74225" lon="0.61455">
        <ele>928.7</ele>
      </trkpt>
      <trkpt lat="42.74206" lon="0.61517">
        <ele>934.8</ele>
      </trkpt>
      <trkpt lat="42.74202" lon="0.61566">
        <ele>944</ele>
      </trkpt>
      <trkpt lat="42.7416" lon="0.61591">
        <ele>945.3</ele>
      </trkpt>
      <trkpt lat="42.74137" lon="0.61624">
        <ele>948.6</ele>
      </trkpt>
      <trkpt lat="42.74136" lon="0.61673">
        <ele>956.2</ele>
      </trkpt>
      <trkpt lat="42.74112" lon="0.61709">
        <ele>957.9</ele>
      </trkpt>
      <trkpt lat="42.74107" lon="0.61746">
        <ele>962.1</ele>
      </trkpt>
      <trkpt lat="42.74091" lon="0.61772">
        <ele>965.8</ele>
      </trkpt>
      <trkpt lat="42.74052" lon="0.61854">
        <ele>973.2</ele>
      </trkpt>
      <trkpt lat="42.74048" lon="0.61905">
        <ele>979.6</ele>
      </trkpt>
      <trkpt lat="42.74026" lon="0.61962">
        <ele>985.3</ele>
      </trkpt>
      <trkpt lat="42.73969" lon="0.62057">
        <ele>995.2</ele>
      </trkpt>
      <trkpt lat="42.73923" lon="0.62161">
        <ele>1009.5</ele>
      </trkpt>
      <trkpt lat="42.73872" lon="0.62277">
        <ele>1019</ele>
      </trkpt>
      <trkpt lat="42.73765" lon="0.62549">
        <ele>1035.2</ele>
      </trkpt>
      <trkpt lat="42.73721" lon="0.62674">
        <ele>1041</ele>
      </trkpt>
      <trkpt lat="42.73738" lon="0.62706">
        <ele>1042.4</ele>
      </trkpt>
      <trkpt lat="42.73754" lon="0.62751">
        <ele>1044.6</ele>
      </trkpt>
      <trkpt lat="42.73738" lon="0.62762">
        <ele>1046.1</ele>
      </trkpt>
      <trkpt lat="42.73691" lon="0.62744">
        <ele>1050.6</ele>
      </trkpt>
      <trkpt lat="42.73666" lon="0.6274">
        <ele>1049.4</ele>
      </trkpt>
      <trkpt lat="42.73642" lon="0.62783">
        <ele>1055.8</ele>
      </trkpt>
      <trkpt lat="42.73641" lon="0.6283">
        <ele>1063.2</ele>
      </trkpt>
      <trkpt lat="42.73532" lon="0.62892">
        <ele>1080.3</ele>
      </trkpt>
      <trkpt lat="42.7342" lon="0.62927">
        <ele>1093.2</ele>
      </trkpt>
      <trkpt lat="42.73395" lon="0.62948">
        <ele>1102.2</ele>
      </trkpt>
      <trkpt lat="42.73327" lon="0.62944">
        <ele>1110</ele>
      </trkpt>
      <trkpt lat="42.73255" lon="0.62995">
        <ele>1121</ele>
      </trkpt>
      <trkpt lat="42.7316" lon="0.63051">
        <ele>1133.2</ele>
      </trkpt>
      <trkpt lat="42.73097" lon="0.63111">
        <ele>1156.4</ele>
      </trkpt>
      <trkpt lat="42.73086" lon="0.63148">
        <ele>1162.5</ele>
      </trkpt>
      <trkpt lat="42.73032" lon="0.63174">
        <ele>1169.5</ele>
      </trkpt>
      <trkpt lat="42.72965" lon="0.63234">
        <ele>1179.4</ele>
      </trkpt>
      <trkpt lat="42.7292" lon="0.63298">
        <ele>1187.1</ele>
      </trkpt>
      <trkpt lat="42.72911" lon="0.63362">
        <ele>1197.6</ele>
      </trkpt>
      <trkpt lat="42.72914" lon="0.6341">
        <ele>1209.3</ele>
      </trkpt>
      <trkpt lat="42.72884" lon="0.63465">
        <ele>1206.1</ele>
      </trkpt>
      <trkpt lat="42.7287" lon="0.63549">
        <ele>1206.2</ele>
      </trkpt>
      <trkpt lat="42.72892" lon="0.63573">
        <ele>1226.2</ele>
      </trkpt>
      <trkpt lat="42.72878" lon="0.63605">
        <ele>1231.8</ele>
      </trkpt>
      <trkpt lat="42.72859" lon="0.63603">
        <ele>1220.7</ele>
      </trkpt>
      <trkpt lat="42.72834" lon="0.63637">
        <ele>1216.9</ele>
      </trkpt>
      <trkpt lat="42.72808" lon="0.63727">
        <ele>1219.8</ele>
      </trkpt>
      <trkpt lat="42.72772" lon="0.63822">
        <ele>1229.6</ele>
      </trkpt>
      <trkpt lat="42.72745" lon="0.63901">
        <ele>1233</ele>
      </trkpt>
      <trkpt lat="42.72741" lon="0.63961">
        <ele>1243.5</ele>
      </trkpt>
      <trkpt lat="42.72712" lon="0.64008">
        <ele>1232.6</ele>
      </trkpt>
      <trkpt lat="42.72708" lon="0.64051">
        <ele>1244.7</ele>
      </trkpt>
      <trkpt lat="42.72668" lon="0.64066">
        <ele>1236.1</ele>
      </trkpt>
      <trkpt lat="42.72695" lon="0.64122">
        <ele>1246.6</ele>
      </trkpt>
      <trkpt lat="42.72681" lon="0.64163">
        <ele>1259</ele>
      </trkpt>
      <trkpt lat="42.72657" lon="0.64174">
        <ele>1257.5</ele>
      </trkpt>
      <trkpt lat="42.7263" lon="0.64167">
        <ele>1241.6</ele>
      </trkpt>
      <trkpt lat="42.72632" lon="0.64204">
        <ele>1253.9</ele>
      </trkpt>
      <trkpt lat="42.72605" lon="0.64253">
        <ele>1254.5</ele>
      </trkpt>
      <trkpt lat="42.72569" lon="0.64414">
        <ele>1263.3</ele>
      </trkpt>
      <trkpt lat="42.72533" lon="0.64452">
        <ele>1262.4</ele>
      </trkpt>
      <trkpt lat="42.72523" lon="0.64523">
        <ele>1275.2</ele>
      </trkpt>
      <trkpt lat="42.72504" lon="0.64596">
        <ele>1275.6</ele>
      </trkpt>
      <trkpt lat="42.72501" lon="0.6465">
        <ele>1284.3</ele>
      </trkpt>
      <trkpt lat="42.72503" lon="0.64687">
        <ele>1289.1</ele>
      </trkpt>
      <trkpt lat="42.725" lon="0.64705">
        <ele>1289.3</ele>
      </trkpt>
      <trkpt lat="42.72503" lon="0.6472">
        <ele>1293.3</ele>
      </trkpt>
      <trkpt lat="42.72508" lon="0.64717">
        <ele>1295.4</ele>
      </trkpt>
      <trkpt lat="42.72512" lon="0.64709">
        <ele>1296.1</ele>
      </trkpt>
      <trkpt lat="42.72513" lon="0.64693">
        <ele>1294.6</ele>
      </trkpt>
      <trkpt lat="42.72516" lon="0.64672">
        <ele>1294.8</ele>
      </trkpt>
      <trkpt lat="42.72527" lon="0.64645">
        <ele>1296.7</ele>
      </trkpt>
      <trkpt lat="42.72541" lon="0.64618">
        <ele>1299.8</ele>
      </trkpt>
      <trkpt lat="42.72551" lon="0.64588">
        <ele>1301.7</ele>
      </trkpt>
      <trkpt lat="42.72561" lon="0.6455">
        <ele>1307.8</ele>
      </trkpt>
      <trkpt lat="42.72565" lon="0.64533">
        <ele>1308.5</ele>
      </trkpt>
      <trkpt lat="42.72577" lon="0.64515">
        <ele>1311.1</ele>
      </trkpt>
      <trkpt lat="42.72602" lon="0.64507">
        <ele>1317.7</ele>
      </trkpt>
      <trkpt lat="42.72621" lon="0.64499">
        <ele>1318.9</ele>
      </trkpt>
      <trkpt lat="42.72648" lon="0.64487">
        <ele>1322.7</ele>
      </trkpt>
      <trkpt lat="42.72689" lon="0.64454">
        <ele>1325.9</ele>
      </trkpt>
      <trkpt lat="42.72746" lon="0.6441">
        <ele>1336.4</ele>
      </trkpt>
      <trkpt lat="42.72793" lon="0.64374">
        <ele>1342.4</ele>
      </trkpt>
      <trkpt lat="42.72812" lon="0.64358">
        <ele>1345.3</ele>
      </trkpt>
      <trkpt lat="42.72829" lon="0.6432">
        <ele>1348.6</ele>
      </trkpt>
      <trkpt lat="42.7284" lon="0.64279">
        <ele>1353.6</ele>
      </trkpt>
      <trkpt lat="42.72845" lon="0.64263">
        <ele>1355.3</ele>
      </trkpt>
      <trkpt lat="42.7285" lon="0.64251">
        <ele>1357</ele>
      </trkpt>
      <trkpt lat="42.7285" lon="0.64222">
        <ele>1357.1</ele>
      </trkpt>
      <trkpt lat="42.72843" lon="0.64199">
        <ele>1358.5</ele>
      </trkpt>
      <trkpt lat="42.72841" lon="0.6418">
        <ele>1360.5</ele>
      </trkpt>
      <trkpt lat="42.72856" lon="0.64138">
        <ele>1367.5</ele>
      </trkpt>
      <trkpt lat="42.72888" lon="0.64075">
        <ele>1373.7</ele>
      </trkpt>
      <trkpt lat="42.72908" lon="0.64036">
        <ele>1380.5</ele>
      </trkpt>
      <trkpt lat="42.72927" lon="0.63982">
        <ele>1386.8</ele>
      </trkpt>
      <trkpt lat="42.72933" lon="0.63956">
        <ele>1385.2</ele>
      </trkpt>
      <trkpt lat="42.72949" lon="0.6394">
        <ele>1390.1</ele>
      </trkpt>
      <trkpt lat="42.72961" lon="0.63926">
        <ele>1392.2</ele>
      </trkpt>
      <trkpt lat="42.72972" lon="0.63913">
        <ele>1395.1</ele>
      </trkpt>
      <trkpt lat="42.72981" lon="0.63888">
        <ele>1397.6</ele>
      </trkpt>
      <trkpt lat="42.72987" lon="0.63865">
        <ele>1397.1</ele>
      </trkpt>
      <trkpt lat="42.73006" lon="0.6384">
        <ele>1400.8</ele>
      </trkpt>
      <trkpt lat="42.7305" lon="0.63803">
        <ele>1406.2</ele>
      </trkpt>
      <trkpt lat="42.73077" lon="0.63785">
        <ele>1411</ele>
      </trkpt>
      <trkpt lat="42.73132" lon="0.63756">
        <ele>1419.2</ele>
      </trkpt>
      <trkpt lat="42.73152" lon="0.63752">
        <ele>1421.3</ele>
      </trkpt>
      <trkpt lat="42.73173" lon="0.63753">
        <ele>1424.8</ele>
      </trkpt>
      <trkpt lat="42.73188" lon="0.63748">
        <ele>1426.5</ele>
      </trkpt>
      <trkpt lat="42.73203" lon="0.63734">
        <ele>1429.9</ele>
      </trkpt>
      <trkpt lat="42.73216" lon="0.63713">
        <ele>1432.6</ele>
      </trkpt>
      <trkpt lat="42.73229" lon="0.6369">
        <ele>1434.2</ele>
      </trkpt>
      <trkpt lat="42.73254" lon="0.63662">
        <ele>1438.5</ele>
      </trkpt>
      <trkpt lat="42.73276" lon="0.6364">
        <ele>1441.6</ele>
      </trkpt>
      <trkpt lat="42.73296" lon="0.63619">
        <ele>1444.5</ele>
      </trkpt>
      <trkpt lat="42.7332" lon="0.636">
        <ele>1447.7</ele>
      </trkpt>
      <trkpt lat="42.73349" lon="0.63586">
        <ele>1450.8</ele>
      </trkpt>
      <trkpt lat="42.73374" lon="0.63582">
        <ele>1454.5</ele>
      </trkpt>
      <trkpt lat="42.73395" lon="0.63579">
        <ele>1456.2</ele>
      </trkpt>
      <trkpt lat="42.73417" lon="0.63594">
        <ele>1460.1</ele>
      </trkpt>
      <trkpt lat="42.73417" lon="0.636">
        <ele>1460.8</ele>
      </trkpt>
      <trkpt lat="42.73419" lon="0.63608">
        <ele>1461.6</ele>
      </trkpt>
      <trkpt lat="42.73419" lon="0.63615">
        <ele>1463</ele>
      </trkpt>
      <trkpt lat="42.73428" lon="0.63625">
        <ele>1465.5</ele>
      </trkpt>
      <trkpt lat="42.73434" lon="0.63634">
        <ele>1468</ele>
      </trkpt>
      <trkpt lat="42.73492" lon="0.63646">
        <ele>1468.8</ele>
      </trkpt>
      <trkpt lat="42.73518" lon="0.63707">
        <ele>1477.7</ele>
      </trkpt>
      <trkpt lat="42.7352" lon="0.63744">
        <ele>1482.7</ele>
      </trkpt>
      <trkpt lat="42.73538" lon="0.63796">
        <ele>1498.6</ele>
      </trkpt>
      <trkpt lat="42.73594" lon="0.63825">
        <ele>1497.2</ele>
      </trkpt>
      <trkpt lat="42.73606" lon="0.6385">
        <ele>1500.1</ele>
      </trkpt>
      <trkpt lat="42.73627" lon="0.63971">
        <ele>1515.7</ele>
      </trkpt>
      <trkpt lat="42.73634" lon="0.64017">
        <ele>1516.6</ele>
      </trkpt>
      <trkpt lat="42.73654" lon="0.64108">
        <ele>1521.8</ele>
      </trkpt>
      <trkpt lat="42.73652" lon="0.64142">
        <ele>1524.7</ele>
      </trkpt>
      <trkpt lat="42.73636" lon="0.64231">
        <ele>1537.9</ele>
      </trkpt>
      <trkpt lat="42.73639" lon="0.64283">
        <ele>1540.7</ele>
      </trkpt>
      <trkpt lat="42.73656" lon="0.6436">
        <ele>1545.8</ele>
      </trkpt>
      <trkpt lat="42.7367" lon="0.64432">
        <ele>1551.1</ele>
      </trkpt>
      <trkpt lat="42.73688" lon="0.64527">
        <ele>1559.7</ele>
      </trkpt>
      <trkpt lat="42.73691" lon="0.64546">
        <ele>1564.2</ele>
      </trkpt>
      <trkpt lat="42.73701" lon="0.64566">
        <ele>1568.8</ele>
      </trkpt>
      <trkpt lat="42.73719" lon="0.6458">
        <ele>1570.5</ele>
      </trkpt>
      <trkpt lat="42.73758" lon="0.64579">
        <ele>1574</ele>
      </trkpt>
      <trkpt lat="42.73797" lon="0.64597">
        <ele>1577.6</ele>
      </trkpt>
      <trkpt lat="42.73841" lon="0.64647">
        <ele>1583.4</ele>
      </trkpt>
      <trkpt lat="42.73851" lon="0.64657">
        <ele>1583.8</ele>
      </trkpt>
      <trkpt lat="42.73862" lon="0.64678">
        <ele>1586.5</ele>
      </trkpt>
      <trkpt lat="42.73863" lon="0.64702">
        <ele>1588</ele>
      </trkpt>
      <trkpt lat="42.73858" lon="0.64732">
        <ele>1588.5</ele>
      </trkpt>
      <trkpt lat="42.7381" lon="0.64805">
        <ele>1592.9</ele>
      </trkpt>
      <trkpt lat="42.73773" lon="0.64886">
        <ele>1598.3</ele>
      </trkpt>
      <trkpt lat="42.73762" lon="0.64912">
        <ele>1601.3</ele>
      </trkpt>
      <trkpt lat="42.73726" lon="0.64976">
        <ele>1609</ele>
      </trkpt>
      <trkpt lat="42.7371" lon="0.65007">
        <ele>1609.7</ele>
      </trkpt>
      <trkpt lat="42.73675" lon="0.65045">
        <ele>1616.9</ele>
      </trkpt>
      <trkpt lat="42.73642" lon="0.6508">
        <ele>1623.5</ele>
        <time>2012-12-24T12:50:59Z</time>
      </trkpt>
      <trkpt lat="42.73618" lon="0.65106">
        <ele>1625.8</ele>
      </trkpt>
      <trkpt lat="42.7358" lon="0.65142">
        <ele>1630.4</ele>
        <time>2012-12-24T12:51:27Z</time>
      </trkpt>
      <trkpt lat="42.7355" lon="0.65158">
        <ele>1634.7</ele>
      </trkpt>
      <trkpt lat="42.73537" lon="0.65165">
        <ele>1635.8</ele>
        <time>2012-12-24T12:51:49Z</time>
      </trkpt>
      <trkpt lat="42.73524" lon="0.65173">
        <ele>1638.7</ele>
      </trkpt>
      <trkpt lat="42.73517" lon="0.65179">
        <ele>1640</ele>
      </trkpt>
      <trkpt lat="42.73511" lon="0.65184">
        <ele>1640.5</ele>
        <time>2012-12-24T12:52:08Z</time>
      </trkpt>
      <trkpt lat="42.73505" lon="0.6519">
        <ele>1640.5</ele>
      </trkpt>
      <trkpt lat="42.73499" lon="0.65195">
        <ele>1640.3</ele>
        <time>2012-12-24T12:52:39Z</time>
      </trkpt>
      <trkpt lat="42.73469" lon="0.65216">
        <ele>1644.1</ele>
      </trkpt>
      <trkpt lat="42.7345" lon="0.65224">
        <ele>1646.7</ele>
        <time>2012-12-24T12:52:56Z</time>
      </trkpt>
      <trkpt lat="42.73427" lon="0.65224">
        <ele>1649.3</ele>
      </trkpt>
      <trkpt lat="42.73406" lon="0.65252">
        <ele>1651.2</ele>
      </trkpt>
      <trkpt lat="42.73397" lon="0.65259">
        <ele>1652.8</ele>
      </trkpt>
      <trkpt lat="42.73384" lon="0.65263">
        <ele>1653.9</ele>
      </trkpt>
      <trkpt lat="42.73372" lon="0.65279">
        <ele>1656.1</ele>
      </trkpt>
      <trkpt lat="42.73348" lon="0.65296">
        <ele>1658.1</ele>
      </trkpt>
      <trkpt lat="42.73333" lon="0.65325">
        <ele>1661.8</ele>
        <time>2012-12-24T12:53:44Z</time>
      </trkpt>
      <trkpt lat="42.73302" lon="0.65367">
        <ele>1666</ele>
      </trkpt>
      <trkpt lat="42.7326" lon="0.65413">
        <ele>1672</ele>
        <time>2012-12-24T12:54:19Z</time>
      </trkpt>
      <trkpt lat="42.73237" lon="0.65429">
        <ele>1674.5</ele>
      </trkpt>
      <trkpt lat="42.73206" lon="0.65457">
        <ele>1677.8</ele>
      </trkpt>
      <trkpt lat="42.73177" lon="0.65502">
        <ele>1682.2</ele>
      </trkpt>
      <trkpt lat="42.73148" lon="0.65545">
        <ele>1685.6</ele>
        <time>2012-12-24T12:55:17Z</time>
      </trkpt>
      <trkpt lat="42.73111" lon="0.65595">
        <ele>1690.6</ele>
      </trkpt>
      <trkpt lat="42.73095" lon="0.65636">
        <ele>1693.9</ele>
        <time>2012-12-24T12:55:57Z</time>
      </trkpt>
      <trkpt lat="42.73087" lon="0.65646">
        <ele>1694.5</ele>
      </trkpt>
      <trkpt lat="42.73082" lon="0.65649">
        <ele>1694.6</ele>
      </trkpt>
      <trkpt lat="42.73061" lon="0.65656">
        <ele>1696.4</ele>
        <time>2012-12-24T12:56:19Z</time>
      </trkpt>
      <trkpt lat="42.73044" lon="0.65678">
        <ele>1696.2</ele>
      </trkpt>
      <trkpt lat="42.73039" lon="0.65702">
        <ele>1697.8</ele>
      </trkpt>
      <trkpt lat="42.73038" lon="0.65741">
        <ele>1702.2</ele>
        <time>2012-12-24T12:56:51Z</time>
      </trkpt>
      <trkpt lat="42.73029" lon="0.65759">
        <ele>1702.2</ele>
      </trkpt>
      <trkpt lat="42.73012" lon="0.65765">
        <ele>1702.4</ele>
      </trkpt>
      <trkpt lat="42.72998" lon="0.65778">
        <ele>1704.7</ele>
      </trkpt>
      <trkpt lat="42.72974" lon="0.65803">
        <ele>1705.7</ele>
        <time>2012-12-24T12:57:10Z</time>
      </trkpt>
      <trkpt lat="42.72954" lon="0.65846">
        <ele>1708.1</ele>
      </trkpt>
      <trkpt lat="42.72934" lon="0.65876">
        <ele>1709.1</ele>
      </trkpt>
      <trkpt lat="42.72913" lon="0.6591">
        <ele>1711.2</ele>
        <time>2012-12-24T12:57:52Z</time>
      </trkpt>
      <trkpt lat="42.72883" lon="0.6595">
        <ele>1714</ele>
      </trkpt>
      <trkpt lat="42.72849" lon="0.65995">
        <ele>1715.1</ele>
        <time>2012-12-24T12:58:24Z</time>
      </trkpt>
      <trkpt lat="42.72836" lon="0.66014">
        <ele>1715</ele>
      </trkpt>
      <trkpt lat="42.72825" lon="0.66034">
        <ele>1716.6</ele>
      </trkpt>
      <trkpt lat="42.72778" lon="0.6607">
        <ele>1720.1</ele>
      </trkpt>
      <trkpt lat="42.72732" lon="0.66111">
        <ele>1721.6</ele>
        <time>2012-12-24T12:59:20Z</time>
      </trkpt>
      <trkpt lat="42.72683" lon="0.66148">
        <ele>1723.3</ele>
      </trkpt>
      <trkpt lat="42.72649" lon="0.66166">
        <ele>1724.9</ele>
      </trkpt>
      <trkpt lat="42.72594" lon="0.66189">
        <ele>1727.5</ele>
      </trkpt>
      <trkpt lat="42.72561" lon="0.66202">
        <ele>1728</ele>
        <time>2012-12-24T13:00:39Z</time>
      </trkpt>
      <trkpt lat="42.72527" lon="0.66245">
        <ele>1729.3</ele>
      </trkpt>
      <trkpt lat="42.72469" lon="0.66325">
        <ele>1729.9</ele>
        <time>2012-12-24T13:01:24Z</time>
      </trkpt>
      <trkpt lat="42.72406" lon="0.66378">
        <ele>1730.1</ele>
        <time>2012-12-24T13:02:04Z</time>
      </trkpt>
      <trkpt lat="42.72388" lon="0.66393">
        <ele>1729.7</ele>
      </trkpt>
      <trkpt lat="42.72353" lon="0.66407">
        <ele>1730</ele>
      </trkpt>
      <trkpt lat="42.72316" lon="0.66435">
        <ele>1730.5</ele>
      </trkpt>
      <trkpt lat="42.72297" lon="0.66454">
        <ele>1732.6</ele>
        <time>2012-12-24T13:02:53Z</time>
      </trkpt>
      <trkpt lat="42.72287" lon="0.66463">
        <ele>1747.625732</ele>
        <time>2012-12-24T13:03:00Z</time>
      </trkpt>
      <trkpt lat="42.72281" lon="0.6646">
        <ele>1731.9</ele>
      </trkpt>
      <trkpt lat="42.72274" lon="0.66445">
        <ele>1731.6</ele>
        <time>2012-12-24T13:03:09Z</time>
      </trkpt>
      <trkpt lat="42.7226" lon="0.66436">
        <ele>1732.9</ele>
      </trkpt>
      <trkpt lat="42.72251" lon="0.66434">
        <ele>1734.1</ele>
      </trkpt>
      <trkpt lat="42.72229" lon="0.66445">
        <ele>1735</ele>
        <time>2012-12-24T13:03:23Z</time>
      </trkpt>
      <trkpt lat="42.72209" lon="0.66465">
        <ele>1738.1</ele>
        <time>2012-12-24T13:03:48Z</time>
      </trkpt>
      <trkpt lat="42.72132" lon="0.66516">
        <ele>1749</ele>
      </trkpt>
      <trkpt lat="42.72099" lon="0.66539">
        <ele>1752.4</ele>
      </trkpt>
      <trkpt lat="42.72088" lon="0.66554">
        <ele>1753</ele>
      </trkpt>
      <trkpt lat="42.72045" lon="0.66578">
        <ele>1755.2</ele>
        <time>2012-12-24T13:04:42Z</time>
      </trkpt>
      <trkpt lat="42.7201" lon="0.66607">
        <ele>1754.3</ele>
        <time>2012-12-24T13:05:09Z</time>
      </trkpt>
      <trkpt lat="42.71979" lon="0.66642">
        <ele>1751.1</ele>
      </trkpt>
      <trkpt lat="42.7195" lon="0.66678">
        <ele>1749</ele>
        <time>2012-12-24T13:05:33Z</time>
      </trkpt>
      <trkpt lat="42.71928" lon="0.66707">
        <ele>1747.7</ele>
      </trkpt>
      <trkpt lat="42.71902" lon="0.66739">
        <ele>1746.2</ele>
        <time>2012-12-24T13:05:58Z</time>
      </trkpt>
      <trkpt lat="42.71892" lon="0.66748">
        <ele>1746.2</ele>
      </trkpt>
      <trkpt lat="42.71872" lon="0.66758">
        <ele>1746.5</ele>
      </trkpt>
      <trkpt lat="42.71859" lon="0.66765">
        <ele>1746.8</ele>
        <time>2012-12-24T13:06:21Z</time>
      </trkpt>
      <trkpt lat="42.71852" lon="0.66771">
        <ele>1746.6</ele>
      </trkpt>
      <trkpt lat="42.7185" lon="0.66746">
        <ele>1743.8</ele>
        <time>2012-12-24T13:06:39Z</time>
      </trkpt>
      <trkpt lat="42.71846" lon="0.66693">
        <ele>1738.3</ele>
      </trkpt>
      <trkpt lat="42.71843" lon="0.66645">
        <ele>1734.5</ele>
      </trkpt>
      <trkpt lat="42.7184" lon="0.66615">
        <ele>1731.9</ele>
      </trkpt>
      <trkpt lat="42.71837" lon="0.66588">
        <ele>1728.6</ele>
      </trkpt>
      <trkpt lat="42.71837" lon="0.66562">
        <ele>1724.3</ele>
        <time>2012-12-24T13:07:24Z</time>
      </trkpt>
      <trkpt lat="42.7184" lon="0.66545">
        <ele>1722.8</ele>
      </trkpt>
      <trkpt lat="42.71844" lon="0.66535">
        <ele>1722.2</ele>
      </trkpt>
      <trkpt lat="42.71854" lon="0.66527">
        <ele>1721.2</ele>
      </trkpt>
      <trkpt lat="42.7186" lon="0.6652">
        <ele>1720.5</ele>
      </trkpt>
      <trkpt lat="42.71858" lon="0.66511">
        <ele>1719.7</ele>
        <time>2012-12-24T13:07:40Z</time>
      </trkpt>
      <trkpt lat="42.71856" lon="0.66504">
        <ele>1719.1</ele>
      </trkpt>
      <trkpt lat="42.71853" lon="0.66494">
        <ele>1717.2</ele>
      </trkpt>
      <trkpt lat="42.71854" lon="0.66487">
        <ele>1715.3</ele>
      </trkpt>
      <trkpt lat="42.71855" lon="0.6648">
        <ele>1713.7</ele>
      </trkpt>
      <trkpt lat="42.71858" lon="0.6648">
        <ele>1714.3</ele>
      </trkpt>
      <trkpt lat="42.71861" lon="0.66476">
        <ele>1713.7</ele>
      </trkpt>
      <trkpt lat="42.71859" lon="0.6647">
        <ele>1711.7</ele>
      </trkpt>
      <trkpt lat="42.71853" lon="0.66467">
        <ele>1708.9</ele>
      </trkpt>
      <trkpt lat="42.71853" lon="0.66463">
        <ele>1707</ele>
      </trkpt>
      <trkpt lat="42.71859" lon="0.66459">
        <ele>1707.3</ele>
      </trkpt>
      <trkpt lat="42.71864" lon="0.66454">
        <ele>1705.3</ele>
      </trkpt>
      <trkpt lat="42.7187" lon="0.66452">
        <ele>1703.7</ele>
      </trkpt>
      <trkpt lat="42.71868" lon="0.66447">
        <ele>1701.6</ele>
      </trkpt>
      <trkpt lat="42.71864" lon="0.66445">
        <ele>1701.8</ele>
      </trkpt>
      <trkpt lat="42.71864" lon="0.6644">
        <ele>1699.1</ele>
      </trkpt>
      <trkpt lat="42.71866" lon="0.66438">
        <ele>1708.363647</ele>
        <time>2012-12-24T13:08:04Z</time>
      </trkpt>
      <trkpt lat="42.71872" lon="0.66436">
        <ele>1695.8</ele>
      </trkpt>
      <trkpt lat="42.71875" lon="0.66438">
        <ele>1696</ele>
      </trkpt>
      <trkpt lat="42.71877" lon="0.66439">
        <ele>1696.2</ele>
      </trkpt>
      <trkpt lat="42.71877" lon="0.66439">
        <ele>1695.9</ele>
      </trkpt>
      <trkpt lat="42.71877" lon="0.66437">
        <ele>1695.3</ele>
      </trkpt>
      <trkpt lat="42.71877" lon="0.66436">
        <ele>1694.7</ele>
      </trkpt>
      <trkpt lat="42.71877" lon="0.66435">
        <ele>1694.2</ele>
      </trkpt>
      <trkpt lat="42.71878" lon="0.66436">
        <ele>1694.4</ele>
      </trkpt>
      <trkpt lat="42.71879" lon="0.66437">
        <ele>1694.7</ele>
      </trkpt>
      <trkpt lat="42.71881" lon="0.66437">
        <ele>1694.7</ele>
      </trkpt>
      <trkpt lat="42.71882" lon="0.66437">
        <ele>1694.3</ele>
      </trkpt>
      <trkpt lat="42.71883" lon="0.66437">
        <ele>1694.1</ele>
      </trkpt>
      <trkpt lat="42.71882" lon="0.66436">
        <ele>1693.8</ele>
      </trkpt>
      <trkpt lat="42.71882" lon="0.66435">
        <ele>1693.5</ele>
      </trkpt>
      <trkpt lat="42.71883" lon="0.66435">
        <ele>1693.1</ele>
      </trkpt>
      <trkpt lat="42.71884" lon="0.66434">
        <ele>1692.6</ele>
      </trkpt>
      <trkpt lat="42.71886" lon="0.66433">
        <ele>1692</ele>
        <time>2012-12-24T13:08:12Z</time>
      </trkpt>
      <trkpt lat="42.71898" lon="0.66427">
        <ele>1691.8</ele>
      </trkpt>
      <trkpt lat="42.71899" lon="0.66421">
        <ele>1688.8</ele>
        <time>2012-12-24T13:08:19Z</time>
      </trkpt>
      <trkpt lat="42.71902" lon="0.66417">
        <ele>1687.4</ele>
      </trkpt>
      <trkpt lat="42.71904" lon="0.66414">
        <ele>1686.7</ele>
      </trkpt>
      <trkpt lat="42.71907" lon="0.66414">
        <ele>1686.7</ele>
      </trkpt>
      <trkpt lat="42.7191" lon="0.66413">
        <ele>1687.2</ele>
      </trkpt>
      <trkpt lat="42.71914" lon="0.66413">
        <ele>1687.8</ele>
      </trkpt>
      <trkpt lat="42.71917" lon="0.66411">
        <ele>1687.7</ele>
      </trkpt>
      <trkpt lat="42.71919" lon="0.66408">
        <ele>1687.8</ele>
      </trkpt>
      <trkpt lat="42.71921" lon="0.66405">
        <ele>1687.3</ele>
      </trkpt>
      <trkpt lat="42.71922" lon="0.66404">
        <ele>1687.2</ele>
      </trkpt>
      <trkpt lat="42.71922" lon="0.66402">
        <ele>1686.6</ele>
      </trkpt>
      <trkpt lat="42.71924" lon="0.664">
        <ele>1686.4</ele>
      </trkpt>
      <trkpt lat="42.71927" lon="0.66395">
        <ele>1715.367676</ele>
        <time>2012-12-24T13:08:36Z</time>
      </trkpt>
      <trkpt lat="42.71934" lon="0.66377">
        <ele>1678</ele>
      </trkpt>
      <trkpt lat="42.71939" lon="0.66364">
        <ele>1673.9</ele>
      </trkpt>
      <trkpt lat="42.71944" lon="0.66354">
        <ele>1672.6</ele>
      </trkpt>
      <trkpt lat="42.71949" lon="0.66354">
        <ele>1674</ele>
      </trkpt>
      <trkpt lat="42.71955" lon="0.66343">
        <ele>1670.7</ele>
      </trkpt>
      <trkpt lat="42.71957" lon="0.66337">
        <ele>1668.3</ele>
        <time>2012-12-24T13:08:57Z</time>
      </trkpt>
      <trkpt lat="42.71963" lon="0.66319">
        <ele>1663.6</ele>
      </trkpt>
      <trkpt lat="42.71972" lon="0.66311">
        <ele>1661</ele>
      </trkpt>
      <trkpt lat="42.71978" lon="0.66303">
        <ele>1660.6</ele>
      </trkpt>
      <trkpt lat="42.71981" lon="0.66296">
        <ele>1660.4</ele>
      </trkpt>
      <trkpt lat="42.7198" lon="0.66286">
        <ele>1658.5</ele>
      </trkpt>
      <trkpt lat="42.7198" lon="0.66277">
        <ele>1657.1</ele>
      </trkpt>
      <trkpt lat="42.71982" lon="0.66263">
        <ele>1654.1</ele>
      </trkpt>
      <trkpt lat="42.71986" lon="0.66254">
        <ele>1652</ele>
      </trkpt>
      <trkpt lat="42.71995" lon="0.66244">
        <ele>1649.6</ele>
        <time>2012-12-24T13:09:25Z</time>
      </trkpt>
      <trkpt lat="42.72005" lon="0.66235">
        <ele>1648.9</ele>
      </trkpt>
      <trkpt lat="42.72006" lon="0.66229">
        <ele>1646.9</ele>
      </trkpt>
      <trkpt lat="42.72005" lon="0.66224">
        <ele>1645.1</ele>
      </trkpt>
      <trkpt lat="42.72008" lon="0.66209">
        <ele>1640.5</ele>
      </trkpt>
      <trkpt lat="42.72012" lon="0.66196">
        <ele>1637</ele>
      </trkpt>
      <trkpt lat="42.72012" lon="0.66187">
        <ele>1634.7</ele>
      </trkpt>
      <trkpt lat="42.72011" lon="0.66182">
        <ele>1633.3</ele>
        <time>2012-12-24T13:09:47Z</time>
      </trkpt>
      <trkpt lat="42.72005" lon="0.66186">
        <ele>1632.1</ele>
      </trkpt>
      <trkpt lat="42.71996" lon="0.66189">
        <ele>1629.5</ele>
      </trkpt>
      <trkpt lat="42.7199" lon="0.66194">
        <ele>1628.6</ele>
      </trkpt>
      <trkpt lat="42.71983" lon="0.66194">
        <ele>1625.7</ele>
      </trkpt>
      <trkpt lat="42.71974" lon="0.66196">
        <ele>1622.5</ele>
      </trkpt>
      <trkpt lat="42.71966" lon="0.66191">
        <ele>1617.2</ele>
      </trkpt>
      <trkpt lat="42.71957" lon="0.6619">
        <ele>1643.76062</ele>
        <time>2012-12-24T13:10:06Z</time>
      </trkpt>
      <trkpt lat="42.71945" lon="0.66195">
        <ele>1613.5</ele>
      </trkpt>
      <trkpt lat="42.71935" lon="0.66199">
        <ele>1637.336182</ele>
        <time>2012-12-24T13:10:16Z</time>
      </trkpt>
      <trkpt lat="42.71922" lon="0.66209">
        <ele>1610.4</ele>
      </trkpt>
      <trkpt lat="42.71915" lon="0.66213">
        <ele>1608.5</ele>
      </trkpt>
      <trkpt lat="42.71906" lon="0.6622">
        <ele>1607.1</ele>
        <time>2012-12-24T13:10:29Z</time>
      </trkpt>
      <trkpt lat="42.71904" lon="0.66217">
        <ele>1603.7</ele>
        <time>2012-12-24T13:10:34Z</time>
      </trkpt>
      <trkpt lat="42.71909" lon="0.66208">
        <ele>1602.4</ele>
      </trkpt>
      <trkpt lat="42.71918" lon="0.66192">
        <ele>1599.3</ele>
      </trkpt>
      <trkpt lat="42.71921" lon="0.66185">
        <ele>1597.1</ele>
      </trkpt>
      <trkpt lat="42.71927" lon="0.6618">
        <ele>1596.5</ele>
      </trkpt>
      <trkpt lat="42.71934" lon="0.66165">
        <ele>1591.6</ele>
      </trkpt>
      <trkpt lat="42.7194" lon="0.66155">
        <ele>1589</ele>
        <time>2012-12-24T13:11:00Z</time>
      </trkpt>
      <trkpt lat="42.71944" lon="0.66146">
        <ele>1585.7</ele>
      </trkpt>
      <trkpt lat="42.71942" lon="0.66144">
        <ele>1583.8</ele>
      </trkpt>
      <trkpt lat="42.71927" lon="0.66151">
        <ele>1581</ele>
      </trkpt>
      <trkpt lat="42.71918" lon="0.66151">
        <ele>1577.7</ele>
      </trkpt>
      <trkpt lat="42.71903" lon="0.66158">
        <ele>1573.1</ele>
      </trkpt>
      <trkpt lat="42.71886" lon="0.66164">
        <ele>1566.1</ele>
        <time>2012-12-24T13:11:21Z</time>
      </trkpt>
      <trkpt lat="42.71874" lon="0.66171">
        <ele>1563</ele>
      </trkpt>
      <trkpt lat="42.71863" lon="0.66176">
        <ele>1558.3</ele>
      </trkpt>
      <trkpt lat="42.7185" lon="0.66186">
        <ele>1554.1</ele>
      </trkpt>
      <trkpt lat="42.71831" lon="0.66202">
        <ele>1547.9</ele>
        <time>2012-12-24T13:11:42Z</time>
      </trkpt>
      <trkpt lat="42.71811" lon="0.66215">
        <ele>1541.9</ele>
        <time>2012-12-24T13:12:00Z</time>
      </trkpt>
      <trkpt lat="42.71799" lon="0.66227">
        <ele>1540.8</ele>
      </trkpt>
      <trkpt lat="42.71777" lon="0.66241">
        <ele>1538.4</ele>
      </trkpt>
      <trkpt lat="42.71762" lon="0.66252">
        <ele>1534.6</ele>
        <time>2012-12-24T13:12:27Z</time>
      </trkpt>
      <trkpt lat="42.71747" lon="0.6627">
        <ele>1533.6</ele>
        <time>2012-12-24T13:12:43Z</time>
      </trkpt>
      <trkpt lat="42.71735" lon="0.66258">
        <ele>1525.5</ele>
      </trkpt>
      <trkpt lat="42.71737" lon="0.66239">
        <ele>1519.9</ele>
      </trkpt>
      <trkpt lat="42.71739" lon="0.66224">
        <ele>1515.9</ele>
      </trkpt>
      <trkpt lat="42.71751" lon="0.66211">
        <ele>1516</ele>
      </trkpt>
      <trkpt lat="42.71738" lon="0.66193">
        <ele>1505.7</ele>
      </trkpt>
      <trkpt lat="42.71718" lon="0.66167">
        <ele>1493.4</ele>
      </trkpt>
      <trkpt lat="42.71697" lon="0.66141">
        <ele>1481.9</ele>
      </trkpt>
      <trkpt lat="42.71672" lon="0.66167">
        <ele>1484.3</ele>
      </trkpt>
      <trkpt lat="42.7166" lon="0.66188">
        <ele>1488.3</ele>
      </trkpt>
      <trkpt lat="42.71653" lon="0.66203">
        <ele>1489.9</ele>
      </trkpt>
      <trkpt lat="42.71646" lon="0.66222">
        <ele>1489.9</ele>
      </trkpt>
      <trkpt lat="42.71642" lon="0.66218">
        <ele>1519.516846</ele>
        <time>2012-12-24T13:13:30Z</time>
      </trkpt>
      <trkpt lat="42.71639" lon="0.66204">
        <ele>1489.7</ele>
      </trkpt>
      <trkpt lat="42.71638" lon="0.66185">
        <ele>1491.2</ele>
      </trkpt>
      <trkpt lat="42.71652" lon="0.66132">
        <ele>1489.2</ele>
        <time>2012-12-24T13:13:55Z</time>
      </trkpt>
      <trkpt lat="42.71665" lon="0.66089">
        <ele>1486.7</ele>
      </trkpt>
      <trkpt lat="42.71672" lon="0.66056">
        <ele>1487.6</ele>
        <time>2012-12-24T13:14:22Z</time>
      </trkpt>
      <trkpt lat="42.71677" lon="0.66029">
        <ele>1485.8</ele>
      </trkpt>
      <trkpt lat="42.7168" lon="0.66001">
        <ele>1485.5</ele>
        <time>2012-12-24T13:14:42Z</time>
      </trkpt>
      <trkpt lat="42.71681" lon="0.65974">
        <ele>1486.9</ele>
      </trkpt>
      <trkpt lat="42.71681" lon="0.65964">
        <ele>1487.8</ele>
      </trkpt>
      <trkpt lat="42.71693" lon="0.65944">
        <ele>1483</ele>
        <time>2012-12-24T13:14:57Z</time>
      </trkpt>
      <trkpt lat="42.71702" lon="0.65909">
        <ele>1482</ele>
      </trkpt>
      <trkpt lat="42.71706" lon="0.65893">
        <ele>1481.8</ele>
      </trkpt>
      <trkpt lat="42.71708" lon="0.65874">
        <ele>1482.5</ele>
        <time>2012-12-24T13:15:14Z</time>
      </trkpt>
      <trkpt lat="42.71711" lon="0.65844">
        <ele>1482.6</ele>
      </trkpt>
      <trkpt lat="42.71716" lon="0.65786">
        <ele>1487.7</ele>
        <time>2012-12-24T13:15:34Z</time>
      </trkpt>
      <trkpt lat="42.71733" lon="0.65736">
        <ele>1487.5</ele>
      </trkpt>
      <trkpt lat="42.71753" lon="0.65705">
        <ele>1481.8</ele>
      </trkpt>
      <trkpt lat="42.71761" lon="0.65686">
        <ele>1479.3</ele>
      </trkpt>
      <trkpt lat="42.71761" lon="0.65672">
        <ele>1477</ele>
      </trkpt>
      <trkpt lat="42.71778" lon="0.65654">
        <ele>1473.3</ele>
      </trkpt>
      <trkpt lat="42.71794" lon="0.6564">
        <ele>1470.5</ele>
      </trkpt>
      <trkpt lat="42.71811" lon="0.65618">
        <ele>1467.7</ele>
      </trkpt>
      <trkpt lat="42.71807" lon="0.65606">
        <ele>1465</ele>
      </trkpt>
      <trkpt lat="42.71801" lon="0.65598">
        <ele>1462.8</ele>
      </trkpt>
      <trkpt lat="42.71789" lon="0.65605">
        <ele>1462.7</ele>
      </trkpt>
      <trkpt lat="42.71781" lon="0.65609">
        <ele>1461.5</ele>
      </trkpt>
      <trkpt lat="42.71786" lon="0.65588">
        <ele>1461.6</ele>
      </trkpt>
      <trkpt lat="42.71794" lon="0.65573">
        <ele>1458.9</ele>
      </trkpt>
      <trkpt lat="42.71799" lon="0.65558">
        <ele>1454.5</ele>
        <time>2012-12-24T13:16:58Z</time>
      </trkpt>
      <trkpt lat="42.718" lon="0.65532">
        <ele>1449.2</ele>
      </trkpt>
      <trkpt lat="42.71798" lon="0.65511">
        <ele>1446.5</ele>
      </trkpt>
      <trkpt lat="42.71796" lon="0.65492">
        <ele>1443.1</ele>
      </trkpt>
      <trkpt lat="42.71787" lon="0.65478">
        <ele>1441.5</ele>
        <time>2012-12-24T13:17:21Z</time>
      </trkpt>
      <trkpt lat="42.71781" lon="0.65468">
        <ele>1440.7</ele>
      </trkpt>
      <trkpt lat="42.71771" lon="0.65459">
        <ele>1440.9</ele>
      </trkpt>
      <trkpt lat="42.71763" lon="0.65453">
        <ele>1441.4</ele>
      </trkpt>
      <trkpt lat="42.71745" lon="0.65429">
        <ele>1440.8</ele>
      </trkpt>
      <trkpt lat="42.71737" lon="0.65406">
        <ele>1438.7</ele>
      </trkpt>
      <trkpt lat="42.71727" lon="0.65386">
        <ele>1437</ele>
        <time>2012-12-24T13:18:15Z</time>
      </trkpt>
      <trkpt lat="42.7171" lon="0.65359">
        <ele>1432.8</ele>
      </trkpt>
      <trkpt lat="42.71701" lon="0.65341">
        <ele>1431.7</ele>
      </trkpt>
      <trkpt lat="42.71699" lon="0.65312">
        <ele>1429.9</ele>
      </trkpt>
      <trkpt lat="42.71702" lon="0.65285">
        <ele>1430</ele>
      </trkpt>
      <trkpt lat="42.7171" lon="0.65259">
        <ele>1429</ele>
      </trkpt>
      <trkpt lat="42.71721" lon="0.65253">
        <ele>1428.1</ele>
        <time>2012-12-24T13:19:01Z</time>
      </trkpt>
      <trkpt lat="42.71774" lon="0.65278">
        <ele>1422.5</ele>
        <time>2012-12-24T13:19:09Z</time>
      </trkpt>
      <trkpt lat="42.71789" lon="0.65316">
        <ele>1419.8</ele>
        <time>2012-12-24T13:20:18Z</time>
      </trkpt>
      <trkpt lat="42.71841" lon="0.65349">
        <ele>1417.3</ele>
        <time>2012-12-24T13:20:39Z</time>
      </trkpt>
      <trkpt lat="42.71854" lon="0.65371">
        <ele>1417.2</ele>
      </trkpt>
      <trkpt lat="42.71874" lon="0.65382">
        <ele>1415.6</ele>
        <time>2012-12-24T13:21:11Z</time>
      </trkpt>
      <trkpt lat="42.71895" lon="0.65383">
        <ele>1413.8</ele>
      </trkpt>
      <trkpt lat="42.71911" lon="0.65395">
        <ele>1412.1</ele>
        <time>2012-12-24T13:21:40Z</time>
      </trkpt>
      <trkpt lat="42.71914" lon="0.65413">
        <ele>1410.6</ele>
        <time>2012-12-24T13:21:53Z</time>
      </trkpt>
      <trkpt lat="42.71915" lon="0.65436">
        <ele>1409.7</ele>
        <time>2012-12-24T13:22:06Z</time>
      </trkpt>
      <trkpt lat="42.71922" lon="0.65448">
        <ele>1408.3</ele>
        <time>2012-12-24T13:22:17Z</time>
      </trkpt>
      <trkpt lat="42.71933" lon="0.65457">
        <ele>1407.2</ele>
        <time>2012-12-24T13:22:30Z</time>
      </trkpt>
      <trkpt lat="42.71963" lon="0.65467">
        <ele>1401.7</ele>
        <time>2012-12-24T13:22:56Z</time>
      </trkpt>
      <trkpt lat="42.71971" lon="0.65483">
        <ele>1399.7</ele>
        <time>2012-12-24T13:23:34Z</time>
      </trkpt>
      <trkpt lat="42.71971" lon="0.65514">
        <ele>1397.5</ele>
      </trkpt>
      <trkpt lat="42.71966" lon="0.65568">
        <ele>1399.4</ele>
      </trkpt>
      <trkpt lat="42.71964" lon="0.65597">
        <ele>1396.3</ele>
      </trkpt>
      <trkpt lat="42.71956" lon="0.6563">
        <ele>1394.4</ele>
      </trkpt>
      <trkpt lat="42.7196" lon="0.65647">
        <ele>1392.1</ele>
      </trkpt>
      <trkpt lat="42.71968" lon="0.65652">
        <ele>1390.3</ele>
      </trkpt>
      <trkpt lat="42.71976" lon="0.65651">
        <ele>1389.9</ele>
      </trkpt>
      <trkpt lat="42.71993" lon="0.65629">
        <ele>1390.5</ele>
      </trkpt>
      <trkpt lat="42.72021" lon="0.65607">
        <ele>1389.9</ele>
      </trkpt>
      <trkpt lat="42.72036" lon="0.6559">
        <ele>1390.1</ele>
      </trkpt>
      <trkpt lat="42.72058" lon="0.65558">
        <ele>1388.7</ele>
      </trkpt>
      <trkpt lat="42.72074" lon="0.65533">
        <ele>1386.4</ele>
      </trkpt>
      <trkpt lat="42.72081" lon="0.65524">
        <ele>1386.3</ele>
      </trkpt>
      <trkpt lat="42.72089" lon="0.65498">
        <ele>1384.7</ele>
        <time>2012-12-24T13:24:10Z</time>
      </trkpt>
    </trkseg>
  </trk>
</gpx>